MUCU/SCU METAR and TAF weather

Enter ICAO airport designator
Station Type Date Time Source
MUCU METAR 2022/01/26 07:50 UTC NOAA

MUCU 260750Z 34003KT 9000 FEW020 23/21 Q1015


Station Type Date Time Source
MUCU Decoded METAR 2022/01/26 07:50 UTC NOAA

Santiago De Cuba, Oriente, Cuba (MUCU) 19-58N 075-51W 55M
Jan 26, 2022 - 02:50 AM EST / 2022.01.26 0750 UTC
Wind: from the NNW (340 degrees) at 3 MPH (3 KT):0
Visibility: 5 mile(s):0
Sky conditions: mostly clear
Temperature: 73 F (23 C)
Dew Point: 69 F (21 C)
Relative Humidity: 88%
Pressure (altimeter): 29.97 in. Hg (1015 hPa)
ob: MUCU 260750Z 34003KT 9000 FEW020 23/21 Q1015
cycle: 8

Station Type Date Time Source
MUCU TAF 2022/01/26 06:24 UTC NOAA

TAF MUCU 260500Z 2606/2706 VRB03KT 9000 SCT020
TEMPO 2703/2706 01008KT

Example: see airport list